Time;durP1;ratioP1;P1;durP2;ratioP2;P2;SDS_P1;SDS_P2;PMS_P1;PMS_P2;Temp;Humidity;BMP_temperature;BMP_pressure;BME280_temperature;BME280_humidity;BME280_pressure;Samples;Min_cycle;Max_cycle;Signal;HPM_P1;HPM_P2
2023/05/23 00:01:30;;;;;;;;;;;;;;;25.71;37.13;100319.31;5066881;28;1119;-30
2023/05/23 00:04:00;;;;;;;;;;;;;;;25.76;36.89;100324.13;5070591;28;1066;-28
2023/05/23 00:06:26;;;;;;;;;;;;;;;25.53;37.21;100331.22;5038223;28;1047;-29
2023/05/23 00:08:51;;;;;;;;;;;;;;;27.29;34.22;100332.66;5061258;28;1099;-28
2023/05/23 00:11:19;;;;;;;;;;;;;;;26.72;35.00;100337.84;5063781;28;1906;-29
2023/05/23 00:13:44;;;;;;;;;;;;;;;25.97;36.29;100330.66;5063679;28;1094;-29
2023/05/23 00:16:10;;;;;;;;;;;;;;;25.68;36.98;100336.69;5079564;28;970;-29
2023/05/23 00:18:35;;;;;;;;;;;;;;;25.66;36.98;100327.94;5060869;28;1026;-30
2023/05/23 00:21:01;;;;;;;;;;;;;;;25.66;37.41;100330.63;5059689;28;1044;-31
2023/05/23 00:23:28;;;;;;;;;;;;;;;27.25;34.05;100324.09;5064512;28;1157;-29
2023/05/23 00:25:54;;;;;;;;;;;;;;;26.88;34.79;100323.28;5079330;28;1055;-31
2023/05/23 00:28:20;;;;;;;;;;;;;;;26.00;36.22;100324.91;5073918;28;1108;-31
2023/05/23 00:30:46;;;;;;;;;;;;;;;25.84;36.61;100326.75;5053434;28;1902;-31
2023/05/23 00:33:13;;;;;;;;;;;;;;;25.79;36.87;100321.09;5055724;28;1074;-28
2023/05/23 00:35:39;;;;;;;;;;;;;;;25.73;36.91;100319.13;5053187;28;1051;-27
2023/05/23 00:38:06;;;;;;;;;;;;;;;25.90;36.38;100320.63;5066091;28;1213;-34
2023/05/23 00:40:32;;;;;;;;;;;;;;;25.87;36.51;100321.00;5066573;28;852;-28
2023/05/23 00:42:58;;;;;;;;;;;;;;;25.93;36.27;100319.41;5058986;28;1083;-28
2023/05/23 00:45:24;;;;;;;;;;;;;;;26.31;35.57;100320.34;5071793;28;1213;-30
2023/05/23 00:47:51;;;;;;;;;;;;;;;26.96;34.38;100309.66;5047943;28;1296;-28
2023/05/23 00:50:16;;;;;;;;;;;;;;;26.39;35.67;100318.38;5060650;28;2002;-29
2023/05/23 00:52:43;;;;;;;;;;;;;;;26.01;36.21;100303.16;5078711;28;1114;-28
2023/05/23 00:55:09;;;;;;;;;;;;;;;25.84;36.78;100299.78;5060725;28;1123;-29
2023/05/23 00:57:38;;;;;;;;;;;;;;;25.69;37.28;100307.91;5072774;28;1167;-30
2023/05/23 01:00:06;;;;;;;;;;;;;;;26.57;35.89;100305.53;5041404;28;1137;-28
2023/05/23 01:02:35;;;;;;;;;;;;;;;27.21;33.98;100312.00;5065717;28;993;-27
2023/05/23 01:05:01;;;;;;;;;;;;;;;26.00;36.66;100306.88;5060242;28;968;-28
2023/05/23 01:07:26;;;;;;;;;;;;;;;25.82;36.74;100306.41;5060853;28;1651;-27
2023/05/23 01:09:52;;;;;;;;;;;;;;;25.86;36.95;100308.53;5065690;28;1989;-31
2023/05/23 01:12:25;;;;;;;;;;;;;;;25.85;36.70;100300.66;5071819;28;1055;-29
2023/05/23 01:14:55;;;;;;;;;;;;;;;25.83;36.74;100299.97;5053693;28;1198;-31
2023/05/23 01:17:23;;;;;;;;;;;;;;;26.01;36.29;100302.31;5040675;28;957;-29
2023/05/23 01:19:55;;;;;;;;;;;;;;;26.19;35.99;100306.50;5055833;28;1118;-27
2023/05/23 01:22:22;;;;;;;;;;;;;;;25.98;36.38;100308.91;5060873;28;1079;-29
2023/05/23 01:24:51;;;;;;;;;;;;;;;25.91;36.59;100306.13;5063760;28;982;-30
2023/05/23 01:27:44;;;;;;;;;;;;;;;26.07;36.21;100301.59;5076860;28;1154;-29
2023/05/23 01:30:10;;;;;;;;;;;;;;;26.16;36.40;100305.84;5032349;28;1902;-29
2023/05/23 01:32:35;;;;;;;;;;;;;;;25.92;36.35;100301.59;5078169;28;996;-28
2023/05/23 01:35:01;;;;;;;;;;;;;;;25.88;36.54;100295.72;5071125;28;1027;-29
2023/05/23 01:37:28;;;;;;;;;;;;;;;25.91;36.59;100305.28;5040601;28;1024;-28
2023/05/23 01:39:54;;;;;;;;;;;;;;;25.88;36.57;100294.88;5059844;28;1115;-27
2023/05/23 01:42:20;;;;;;;;;;;;;;;26.84;34.75;100289.63;5064291;28;1014;-27
2023/05/23 01:44:45;;;;;;;;;;;;;;;27.20;33.81;100299.53;5064637;28;1157;-30
2023/05/23 01:47:11;;;;;;;;;;;;;;;26.25;36.00;100292.25;5059431;28;1055;-28
2023/05/23 01:49:38;;;;;;;;;;;;;;;25.98;36.54;100284.66;5030726;28;1973;-32
2023/05/23 01:52:03;;;;;;;;;;;;;;;25.78;36.88;100293.31;5052189;28;1129;-32
2023/05/23 01:54:31;;;;;;;;;;;;;;;25.74;36.94;100289.28;5040324;28;1149;-29
2023/05/23 01:56:56;;;;;;;;;;;;;;;25.98;36.83;100287.34;5040054;28;1476;-28
2023/05/23 01:59:22;;;;;;;;;;;;;;;27.07;34.16;100288.63;5039794;28;1134;-29
2023/05/23 02:01:48;;;;;;;;;;;;;;;26.43;35.39;100288.34;5053393;28;1150;-27
2023/05/23 02:04:14;;;;;;;;;;;;;;;26.03;36.33;100281.41;5039687;28;1130;-30
2023/05/23 02:06:40;;;;;;;;;;;;;;;25.92;36.42;100288.94;5039892;28;1236;-29
2023/05/23 02:09:08;;;;;;;;;;;;;;;25.86;36.52;100278.91;5046752;28;1121;-30
2023/05/23 02:11:34;;;;;;;;;;;;;;;25.92;36.76;100285.41;5045507;28;1973;-32
2023/05/23 02:14:01;;;;;;;;;;;;;;;25.99;36.28;100278.25;5057784;28;1059;-29
2023/05/23 02:16:27;;;;;;;;;;;;;;;25.90;36.31;100282.91;5046590;28;1206;-28
2023/05/23 02:18:55;;;;;;;;;;;;;;;25.95;36.69;100279.66;5059095;28;1273;-29
2023/05/23 02:21:21;;;;;;;;;;;;;;;25.81;36.75;100284.00;5064383;28;1383;-31
2023/05/23 02:23:47;;;;;;;;;;;;;;;25.74;37.04;100278.53;5069764;28;1102;-30
2023/05/23 02:26:16;;;;;;;;;;;;;;;26.70;35.17;100281.38;5053579;28;1233;-33
2023/05/23 02:28:42;;;;;;;;;;;;;;;27.16;33.94;100279.34;5068385;28;914;-29
2023/05/23 02:31:08;;;;;;;;;;;;;;;26.20;36.01;100284.75;5058775;28;1971;-27
2023/05/23 02:33:33;;;;;;;;;;;;;;;26.09;36.39;100286.03;5077014;28;1106;-27
2023/05/23 02:35:59;;;;;;;;;;;;;;;25.75;36.86;100285.59;5044607;28;1141;-25
2023/05/23 02:38:26;;;;;;;;;;;;;;;25.65;37.16;100285.03;5068912;28;1115;-29
2023/05/23 02:40:52;;;;;;;;;;;;;;;25.66;36.94;100286.69;5053143;28;1428;-29
2023/05/23 02:43:21;;;;;;;;;;;;;;;25.72;37.03;100280.59;5058906;28;1280;-30
2023/05/23 02:45:46;;;;;;;;;;;;;;;27.05;34.24;100282.56;5063681;28;1083;-28
2023/05/23 02:48:12;;;;;;;;;;;;;;;26.41;35.21;100293.91;5058674;28;1083;-27
2023/05/23 02:50:37;;;;;;;;;;;;;;;25.88;36.60;100298.41;5058210;28;1906;-29
2023/05/23 02:53:03;;;;;;;;;;;;;;;25.87;36.71;100296.75;5058566;28;1110;-28
2023/05/23 02:55:30;;;;;;;;;;;;;;;26.04;36.21;100289.31;5058631;28;1223;-31
2023/05/23 02:57:57;;;;;;;;;;;;;;;26.06;35.98;100288.28;5050080;28;1131;-29
2023/05/23 03:00:23;;;;;;;;;;;;;;;25.88;36.66;100293.03;5051753;28;1202;-31
2023/05/23 03:02:52;;;;;;;;;;;;;;;25.94;36.25;100298.69;5048183;28;1147;-28
2023/05/23 03:05:18;;;;;;;;;;;;;;;25.88;36.82;100297.56;5063029;28;1149;-31
2023/05/23 03:07:44;;;;;;;;;;;;;;;26.66;35.13;100290.88;5058550;28;1119;-28
2023/05/23 03:10:10;;;;;;;;;;;;;;;27.04;34.24;100289.84;5044839;28;1969;-28
2023/05/23 03:12:36;;;;;;;;;;;;;;;26.12;36.12;100290.22;5058314;28;1230;-29
2023/05/23 03:15:01;;;;;;;;;;;;;;;26.31;34.74;100291.50;5060633;28;1246;-30
2023/05/23 03:17:27;;;;;;;;;;;;;;;26.31;34.77;100290.69;5047480;28;1402;-35
2023/05/23 03:19:52;;;;;;;;;;;;;;;25.94;35.30;100293.31;5042583;28;1287;-28
2023/05/23 03:22:18;;;;;;;;;;;;;;;25.49;35.54;100286.81;5047730;28;1238;-27
2023/05/23 03:24:43;;;;;;;;;;;;;;;25.54;36.36;100292.50;5076290;28;1099;-30
2023/05/23 03:27:10;;;;;;;;;;;;;;;25.53;35.83;100292.69;5058309;28;1109;-29
2023/05/23 03:29:35;;;;;;;;;;;;;;;25.35;35.96;100301.94;5075470;28;1971;-27
2023/05/23 03:32:01;;;;;;;;;;;;;;;25.28;36.34;100304.53;5076038;28;1055;-28
2023/05/23 03:34:27;;;;;;;;;;;;;;;25.22;36.43;100305.25;5044730;28;1258;-32
2023/05/23 03:36:53;;;;;;;;;;;;;;;25.08;36.44;100298.78;5076492;28;1068;-32
2023/05/23 03:39:18;;;;;;;;;;;;;;;25.16;36.26;100314.03;5062218;28;1162;-29
2023/05/23 03:41:44;;;;;;;;;;;;;;;25.01;36.52;100309.44;5048043;28;1991;-34
2023/05/23 03:44:09;;;;;;;;;;;;;;;25.18;36.42;100310.16;5071124;28;1442;-33
2023/05/23 03:46:35;;;;;;;;;;;;;;;25.17;36.10;100318.41;5057881;28;1275;-28
2023/05/23 03:49:01;;;;;;;;;;;;;;;25.30;36.15;100317.81;5041896;28;1397;-34
2023/05/23 03:51:28;;;;;;;;;;;;;;;25.20;36.26;100320.75;5052957;28;1973;-29
2023/05/23 03:53:53;;;;;;;;;;;;;;;25.36;36.87;100327.03;5054741;28;1186;-28
2023/05/23 03:56:19;;;;;;;;;;;;;;;25.48;37.06;100324.72;5044810;28;1226;-26
2023/05/23 03:58:45;;;;;;;;;;;;;;;25.85;35.76;100331.13;5049271;28;1149;-27
2023/05/23 04:01:13;;;;;;;;;;;;;;;25.84;35.44;100332.13;5034311;28;1147;-29
2023/05/23 04:03:38;;;;;;;;;;;;;;;25.64;36.21;100326.47;5037728;28;1155;-30
2023/05/23 04:06:04;;;;;;;;;;;;;;;25.22;36.84;100321.41;5064265;28;951;-31
2023/05/23 04:08:32;;;;;;;;;;;;;;;25.51;36.19;100329.72;5042705;28;1139;-31
2023/05/23 04:11:00;;;;;;;;;;;;;;;26.01;35.19;100331.94;5046862;28;1980;-29
2023/05/23 04:13:25;;;;;;;;;;;;;;;26.20;34.41;100332.41;5055487;28;1166;-30
2023/05/23 04:15:51;;;;;;;;;;;;;;;25.90;35.12;100336.81;5047304;28;1269;-31
2023/05/23 04:18:18;;;;;;;;;;;;;;;26.04;34.59;100335.13;5057467;28;1154;-30
2023/05/23 04:20:45;;;;;;;;;;;;;;;25.73;35.46;100328.03;5058013;28;1196;-32
2023/05/23 04:23:10;;;;;;;;;;;;;;;25.95;35.06;100330.00;5044543;28;1307;-33
2023/05/23 04:25:38;;;;;;;;;;;;;;;25.87;35.36;100325.56;5047958;28;1132;-35
2023/05/23 04:28:10;;;;;;;;;;;;;;;25.94;35.35;100334.59;5050918;28;1478;-31
2023/05/23 04:30:35;;;;;;;;;;;;;;;25.96;35.39;100340.59;5072624;28;1969;-34
2023/05/23 04:33:01;;;;;;;;;;;;;;;26.33;34.77;100343.41;5057279;28;1471;-33
2023/05/23 04:35:27;;;;;;;;;;;;;;;26.46;34.35;100333.84;5047468;28;1135;-30
2023/05/23 04:37:56;;;;;;;;;;;;;;;26.57;33.46;100335.19;5050936;28;1143;-31
2023/05/23 04:40:23;;;;;;;;;;;;;;;26.46;34.39;100339.22;5048685;28;1149;-31
2023/05/23 04:43:13;;;;;;;;;;;;;;;26.43;34.31;100343.13;5050177;28;1384;-32
2023/05/23 04:45:53;;;;;;;;;;;;;;;26.45;34.14;100351.03;5071031;28;1045;-32
2023/05/23 04:48:38;;;;;;;;;;;;;;;26.25;34.35;100360.50;5057315;28;1075;-32
2023/05/23 04:51:07;;;;;;;;;;;;;;;26.31;34.47;100356.22;5063849;28;1971;-32
2023/05/23 04:53:35;;;;;;;;;;;;;;;26.39;34.03;100361.53;5053892;28;1396;-31
2023/05/23 04:56:01;;;;;;;;;;;;;;;26.36;33.97;100363.78;5056443;28;1197;-32
2023/05/23 04:58:28;;;;;;;;;;;;;;;26.34;34.10;100350.47;5053185;28;1214;-30
2023/05/23 05:00:57;;;;;;;;;;;;;;;26.51;33.71;100363.75;5049231;28;1473;-34
2023/05/23 05:03:23;;;;;;;;;;;;;;;26.27;34.08;100354.94;5052206;28;1321;-35
2023/05/23 05:05:50;;;;;;;;;;;;;;;25.82;35.06;100357.59;5045774;28;1373;-34
2023/05/23 05:08:18;;;;;;;;;;;;;;;26.01;34.74;100367.00;5044882;28;1337;-36
2023/05/23 05:10:44;;;;;;;;;;;;;;;25.98;34.95;100361.97;5041113;28;1921;-30
2023/05/23 05:13:10;;;;;;;;;;;;;;;25.98;34.62;100362.81;5040806;28;1181;-29
2023/05/23 05:15:42;;;;;;;;;;;;;;;26.01;34.54;100361.59;5054128;28;1200;-31
2023/05/23 05:18:08;;;;;;;;;;;;;;;26.05;34.27;100357.53;5040778;28;1130;-31
2023/05/23 05:20:33;;;;;;;;;;;;;;;25.97;34.54;100353.06;5053828;28;2155;-32
2023/05/23 05:23:00;;;;;;;;;;;;;;;26.04;34.60;100367.47;5050500;28;1142;-33
2023/05/23 05:25:30;;;;;;;;;;;;;;;26.23;34.19;100376.03;5046821;28;1372;-33
2023/05/23 05:27:56;;;;;;;;;;;;;;;26.26;34.19;100372.09;5049837;28;1265;-33
2023/05/23 05:30:22;;;;;;;;;;;;;;;26.43;33.71;100364.69;5051277;28;1898;-30
2023/05/23 05:32:51;;;;;;;;;;;;;;;26.45;34.19;100370.75;5073387;28;1174;-34
2023/05/23 05:35:17;;;;;;;;;;;;;;;26.37;33.70;100368.16;5053083;28;1036;-30
2023/05/23 05:37:44;;;;;;;;;;;;;;;26.49;33.60;100374.72;5042284;28;1301;-32
2023/05/23 05:40:11;;;;;;;;;;;;;;;26.48;34.01;100367.66;5059988;28;1276;-32
2023/05/23 05:42:40;;;;;;;;;;;;;;;26.73;33.71;100375.44;5077599;28;1185;-29
2023/05/23 05:45:06;;;;;;;;;;;;;;;26.56;33.78;100382.91;5060238;28;1277;-30
2023/05/23 05:47:32;;;;;;;;;;;;;;;26.85;33.62;100385.75;5057339;28;1149;-32
2023/05/23 05:49:58;;;;;;;;;;;;;;;26.53;34.35;100386.81;5049487;28;2039;-30
2023/05/23 05:52:23;;;;;;;;;;;;;;;26.41;34.31;100391.84;5078045;28;1087;-30
2023/05/23 05:54:49;;;;;;;;;;;;;;;26.27;34.10;100395.38;5078036;28;929;-28
2023/05/23 05:57:14;;;;;;;;;;;;;;;26.22;34.12;100381.59;5046599;28;1164;-28
2023/05/23 05:59:41;;;;;;;;;;;;;;;26.25;34.26;100392.00;5060312;28;1309;-33
2023/05/23 06:02:07;;;;;;;;;;;;;;;26.38;33.94;100391.38;5056690;28;1894;-35
2023/05/23 06:04:32;;;;;;;;;;;;;;;26.35;34.27;100399.84;5040212;28;1291;-32
2023/05/23 06:06:58;;;;;;;;;;;;;;;26.12;34.83;100385.44;5044080;28;1488;-30
2023/05/23 06:09:24;;;;;;;;;;;;;;;26.27;34.33;100388.13;5077347;28;1298;-31
2023/05/23 06:11:49;;;;;;;;;;;;;;;26.19;34.57;100398.16;5076635;28;1983;-29
2023/05/23 06:14:15;;;;;;;;;;;;;;;26.36;34.58;100386.19;5043277;28;1332;-31
2023/05/23 06:16:44;;;;;;;;;;;;;;;26.05;34.90;100381.78;5039160;28;1261;-33
2023/05/23 06:19:10;;;;;;;;;;;;;;;26.38;34.05;100383.28;5064206;28;1242;-32
2023/05/23 06:21:37;;;;;;;;;;;;;;;26.29;34.33;100388.75;5050423;28;1206;-29
2023/05/23 06:24:04;;;;;;;;;;;;;;;26.14;34.99;100386.06;5044284;28;1481;-32
2023/05/23 06:26:30;;;;;;;;;;;;;;;26.08;34.74;100381.41;5046763;28;1375;-32
2023/05/23 06:28:56;;;;;;;;;;;;;;;26.23;34.46;100389.50;5051265;28;1107;-33
2023/05/23 06:31:21;;;;;;;;;;;;;;;26.21;34.76;100385.34;5066790;28;1980;-29
2023/05/23 06:33:47;;;;;;;;;;;;;;;26.14;34.53;100385.25;5038704;28;1631;-30
2023/05/23 06:36:12;;;;;;;;;;;;;;;26.21;34.65;100391.53;5055829;28;1269;-31
2023/05/23 06:38:39;;;;;;;;;;;;;;;26.08;34.79;100388.66;5056343;28;1207;-30
2023/05/23 06:41:05;;;;;;;;;;;;;;;26.57;34.20;100390.00;5056916;28;1297;-31
2023/05/23 06:43:32;;;;;;;;;;;;;;;26.55;33.83;100385.78;5049415;28;1336;-30
2023/05/23 06:46:21;;;;;;;;;;;;;;;26.28;34.66;100386.25;5057110;28;1233;-29
2023/05/23 06:48:46;;;;;;;;;;;;;;;25.91;35.40;100389.66;5064771;28;1075;-29
2023/05/23 06:51:12;;;;;;;;;;;;;;;25.82;35.37;100393.47;5044146;28;1991;-32
2023/05/23 06:53:37;;;;;;;;;;;;;;;25.67;35.33;100385.34;5047106;28;1163;-28
2023/05/23 06:56:03;;;;;;;;;;;;;;;25.94;36.06;100395.72;5057114;28;1213;-29
2023/05/23 06:58:31;;;;;;;;;;;;;;;26.36;34.58;100385.38;5047212;28;1386;-28
2023/05/23 07:00:57;;;;;;;;;;;;;;;26.68;33.51;100385.97;5058540;28;1479;-30
2023/05/23 07:03:29;;;;;;;;;;;;;;;26.60;33.84;100389.59;5057566;28;1226;-30
2023/05/23 07:05:59;;;;;;;;;;;;;;;26.70;33.51;100375.81;5046265;28;1207;-29
2023/05/23 07:08:25;;;;;;;;;;;;;;;26.68;34.10;100375.16;5058492;28;1059;-31
2023/05/23 07:10:57;;;;;;;;;;;;;;;26.68;34.27;100377.03;5058819;28;1987;-31
2023/05/23 07:13:36;;;;;;;;;;;;;;;26.33;34.30;100381.16;5045054;28;1202;-30
2023/05/23 07:16:02;;;;;;;;;;;;;;;26.15;34.52;100381.50;5058002;28;1353;-30
2023/05/23 07:18:29;;;;;;;;;;;;;;;26.03;34.97;100367.66;5054016;28;2088;-32
2023/05/23 07:20:56;;;;;;;;;;;;;;;26.06;34.75;100369.16;5038348;28;1227;-30
2023/05/23 07:23:22;;;;;;;;;;;;;;;26.00;35.04;100376.09;5050933;28;1163;-32
2023/05/23 07:25:49;;;;;;;;;;;;;;;26.10;34.93;100370.44;5049118;28;1174;-29
2023/05/23 07:28:24;;;;;;;;;;;;;;;25.98;34.99;100370.06;5044853;28;1265;-34
2023/05/23 07:30:51;;;;;;;;;;;;;;;25.92;35.10;100367.06;5053642;28;1918;-34
2023/05/23 07:33:16;;;;;;;;;;;;;;;25.97;35.09;100368.41;5041807;28;1210;-32
2023/05/23 07:35:44;;;;;;;;;;;;;;;26.08;35.18;100367.94;5055327;28;1126;-31
2023/05/23 07:38:09;;;;;;;;;;;;;;;26.25;35.15;100371.28;5037267;28;1210;-32
2023/05/23 07:40:37;;;;;;;;;;;;;;;26.25;35.03;100373.13;5037734;28;1297;-32
2023/05/23 07:43:03;;;;;;;;;;;;;;;26.20;35.08;100368.31;5042785;28;1354;-32
2023/05/23 07:45:28;;;;;;;;;;;;;;;26.28;34.86;100378.16;5037485;28;2562;-31
2023/05/23 07:47:54;;;;;;;;;;;;;;;26.58;34.56;100370.06;5038157;28;1221;-33
2023/05/23 07:50:20;;;;;;;;;;;;;;;26.36;34.82;100388.06;5037820;28;1906;-34
2023/05/23 07:52:47;;;;;;;;;;;;;;;26.40;34.75;100375.84;5046119;28;1307;-33
2023/05/23 07:55:15;;;;;;;;;;;;;;;26.47;34.48;100371.41;5053294;28;1168;-30
2023/05/23 07:57:40;;;;;;;;;;;;;;;26.39;34.49;100380.41;5052400;28;1213;-31
2023/05/23 08:00:08;;;;;;;;;;;;;;;26.30;34.74;100378.81;5048901;28;1110;-27
2023/05/23 08:02:40;;;;;;;;;;;;;;;26.35;34.84;100379.13;5054826;28;1032;-28
2023/05/23 08:05:07;;;;;;;;;;;;;;;26.36;34.75;100382.66;5049733;28;1394;-31
2023/05/23 08:07:33;;;;;;;;;;;;;;;26.38;34.89;100377.91;5045840;28;1341;-31
2023/05/23 08:10:01;;;;;;;;;;;;;;;26.32;34.84;100376.78;5047481;28;1918;-29
2023/05/23 08:12:27;;;;;;;;;;;;;;;26.65;33.93;100373.69;5057446;28;1312;-33
2023/05/23 08:15:01;;;;;;;;;;;;;;;26.63;34.43;100372.19;5057195;28;1593;-28
2023/05/23 08:17:34;;;;;;;;;;;;;;;26.79;34.08;100371.16;5055812;28;1294;-30
2023/05/23 08:20:01;;;;;;;;;;;;;;;26.81;34.05;100362.88;5046911;28;1354;-28
2023/05/23 08:22:27;;;;;;;;;;;;;;;26.48;34.88;100367.66;5054632;28;1197;-31
2023/05/23 08:24:53;;;;;;;;;;;;;;;26.53;34.63;100362.56;5057391;28;1115;-31
2023/05/23 08:27:19;;;;;;;;;;;;;;;26.69;34.38;100355.28;5044125;28;1271;-30
2023/05/23 08:29:49;;;;;;;;;;;;;;;26.90;34.01;100346.38;5050237;28;1910;-32
2023/05/23 08:32:15;;;;;;;;;;;;;;;26.73;34.49;100351.16;5053015;28;1226;-30
2023/05/23 08:34:41;;;;;;;;;;;;;;;26.88;34.50;100343.00;5039015;28;1171;-33
2023/05/23 08:37:07;;;;;;;;;;;;;;;26.84;34.47;100349.81;5053709;28;1168;-28
2023/05/23 08:39:32;;;;;;;;;;;;;;;26.78;34.50;100351.44;5059810;28;1138;-32
2023/05/23 08:42:18;;;;;;;;;;;;;;;26.62;34.70;100344.41;5042594;28;1187;-33
2023/05/23 08:44:44;;;;;;;;;;;;;;;26.70;34.35;100345.28;5041158;28;1846;-32
2023/05/23 08:47:09;;;;;;;;;;;;;;;26.67;34.11;100348.38;5019208;28;1135;-31
2023/05/23 08:49:50;;;;;;;;;;;;;;;26.55;34.59;100339.94;5035325;28;1992;-29
2023/05/23 08:52:16;;;;;;;;;;;;;;;26.47;34.72;100348.97;5017300;28;1542;-31
2023/05/23 08:54:44;;;;;;;;;;;;;;;26.32;34.80;100344.41;5009380;28;1443;-28
2023/05/23 08:57:12;;;;;;;;;;;;;;;26.40;34.67;100344.34;5035475;28;1175;-31
2023/05/23 08:59:41;;;;;;;;;;;;;;;26.55;34.33;100354.28;5017947;28;1162;-32
2023/05/23 09:02:07;;;;;;;;;;;;;;;26.48;34.41;100353.34;5020728;28;1063;-30
2023/05/23 09:04:33;;;;;;;;;;;;;;;26.49;34.22;100350.44;5028024;28;1110;-33
2023/05/23 09:07:03;;;;;;;;;;;;;;;26.37;34.14;100352.81;5032662;28;1241;-34
2023/05/23 09:09:30;;;;;;;;;;;;;;;26.38;34.41;100356.31;5020054;28;1305;-29
2023/05/23 09:11:58;;;;;;;;;;;;;;;26.27;34.68;100347.69;5034237;28;1977;-34
2023/05/23 09:14:29;;;;;;;;;;;;;;;26.39;34.67;100345.34;5027819;28;1322;-29
2023/05/23 09:17:00;;;;;;;;;;;;;;;26.35;34.67;100351.31;5037453;28;1347;-32
2023/05/23 09:19:25;;;;;;;;;;;;;;;26.32;34.52;100340.88;5036888;28;1388;-32
2023/05/23 09:21:59;;;;;;;;;;;;;;;26.30;34.80;100349.16;5018402;28;1254;-31
2023/05/23 09:24:32;;;;;;;;;;;;;;;26.47;34.59;100344.44;5014894;28;1322;-30
2023/05/23 09:26:58;;;;;;;;;;;;;;;26.76;33.71;100348.06;5034690;28;1176;-32
2023/05/23 09:29:23;;;;;;;;;;;;;;;27.00;33.57;100347.91;5036950;28;1154;-32
2023/05/23 09:31:49;;;;;;;;;;;;;;;26.77;34.45;100343.53;5009004;28;1985;-31
2023/05/23 09:34:15;;;;;;;;;;;;;;;26.63;34.71;100346.06;5024890;28;1139;-29
2023/05/23 09:36:42;;;;;;;;;;;;;;;26.59;34.22;100344.75;5017443;28;1223;-34
2023/05/23 09:39:09;;;;;;;;;;;;;;;26.78;34.32;100347.88;5029140;28;1151;-33
2023/05/23 09:41:35;;;;;;;;;;;;;;;26.64;34.60;100346.91;5018726;28;1989;-32
2023/05/23 09:44:08;;;;;;;;;;;;;;;26.64;34.41;100346.91;5028667;28;1213;-29
2023/05/23 09:46:34;;;;;;;;;;;;;;;26.56;34.86;100333.53;5046352;28;1292;-31
2023/05/23 09:48:59;;;;;;;;;;;;;;;26.63;34.56;100339.81;5039431;28;1276;-29
2023/05/23 09:51:25;;;;;;;;;;;;;;;26.79;33.74;100341.47;5072131;28;1910;-33
2023/05/23 09:53:51;;;;;;;;;;;;;;;27.01;33.16;100341.47;5070869;28;1127;-31
2023/05/23 09:56:17;;;;;;;;;;;;;;;27.08;33.83;100346.97;5071057;28;1067;-31
2023/05/23 09:58:43;;;;;;;;;;;;;;;27.19;33.42;100335.69;5065143;28;1043;-31
2023/05/23 10:01:09;;;;;;;;;;;;;;;27.21;33.67;100341.69;5062011;28;1198;-30
2023/05/23 10:03:53;;;;;;;;;;;;;;;27.15;33.46;100337.06;5050253;28;1095;-32
2023/05/23 10:06:22;;;;;;;;;;;;;;;26.80;33.93;100342.28;5071587;28;1176;-30
2023/05/23 10:09:02;;;;;;;;;;;;;;;26.70;34.03;100340.75;5064026;28;1202;-28
2023/05/23 10:11:31;;;;;;;;;;;;;;;26.68;34.54;100360.84;5051635;28;1993;-30
2023/05/23 10:13:57;;;;;;;;;;;;;;;27.06;34.58;100362.53;5074739;28;1313;-32
2023/05/23 10:16:26;;;;;;;;;;;;;;;26.92;35.33;100364.22;5050899;28;1219;-30
2023/05/23 10:18:53;;;;;;;;;;;;;;;26.95;36.13;100366.53;5051612;28;1230;-32
2023/05/23 10:21:21;;;;;;;;;;;;;;;26.85;36.45;100365.00;5041929;28;1183;-32
2023/05/23 10:23:47;;;;;;;;;;;;;;;26.77;36.60;100371.34;5068213;28;1202;-30
2023/05/23 10:26:12;;;;;;;;;;;;;;;26.83;36.54;100368.88;5066078;28;1270;-30
2023/05/23 10:28:38;;;;;;;;;;;;;;;26.77;36.22;100374.06;5056914;28;1391;-34
2023/05/23 10:31:03;;;;;;;;;;;;;;;26.72;37.20;100381.88;5059530;28;1918;-28
2023/05/23 10:33:30;;;;;;;;;;;;;;;25.76;40.71;100388.78;5055423;28;957;-30
2023/05/23 10:35:56;;;;;;;;;;;;;;;24.52;44.75;100386.69;5066851;28;1182;-30
2023/05/23 10:38:25;;;;;;;;;;;;;;;23.92;45.93;100386.16;5054150;28;1223;-29
2023/05/23 10:41:14;;;;;;;;;;;;;;;24.17;45.32;100395.03;5070515;28;1199;-29
2023/05/23 10:43:39;;;;;;;;;;;;;;;24.19;46.93;100387.63;5047284;28;1731;-30
2023/05/23 10:46:08;;;;;;;;;;;;;;;24.13;47.28;100395.50;5068660;28;1089;-30
2023/05/23 10:48:34;;;;;;;;;;;;;;;24.08;46.58;100407.63;5067379;28;1099;-31
2023/05/23 10:51:06;;;;;;;;;;;;;;;24.25;46.17;100425.59;5063584;28;1973;-26
2023/05/23 10:53:33;;;;;;;;;;;;;;;25.23;43.66;100419.13;5067876;28;1317;-26
2023/05/23 10:56:00;;;;;;;;;;;;;;;25.14;43.52;100418.38;5071618;28;1153;-27
2023/05/23 10:58:27;;;;;;;;;;;;;;;24.78;44.00;100420.53;5056297;28;1087;-27
2023/05/23 11:00:56;;;;;;;;;;;;;;;24.55;45.27;100415.09;5044872;28;1315;-28
2023/05/23 11:03:40;;;;;;;;;;;;;;;24.81;44.91;100420.19;5057679;28;1160;-28
2023/05/23 11:06:06;;;;;;;;;;;;;;;25.51;42.58;100411.38;5056381;28;1155;-30
2023/05/23 11:08:40;;;;;;;;;;;;;;;25.99;41.86;100413.00;5071507;28;1157;-28
2023/05/23 11:11:06;;;;;;;;;;;;;;;26.13;41.27;100407.81;5066059;28;1968;-26
2023/05/23 11:13:50;;;;;;;;;;;;;;;26.33;41.23;100418.06;5072770;28;1113;-30
2023/05/23 11:16:22;;;;;;;;;;;;;;;26.61;40.87;100410.16;5065073;28;1156;-33
2023/05/23 11:18:48;;;;;;;;;;;;;;;26.53;40.59;100411.09;5074920;28;1316;-34
2023/05/23 11:21:13;;;;;;;;;;;;;;;26.70;39.11;100408.19;5074345;28;1280;-30
2023/05/23 11:23:40;;;;;;;;;;;;;;;26.74;39.46;100408.66;5057155;28;1320;-32
2023/05/23 11:26:13;;;;;;;;;;;;;;;26.78;39.93;100415.34;5075631;28;1351;-28
2023/05/23 11:28:57;;;;;;;;;;;;;;;26.91;39.05;100403.84;5057480;28;1163;-31
2023/05/23 11:31:23;;;;;;;;;;;;;;;26.98;37.38;100395.84;5062321;28;1914;-31
2023/05/23 11:33:51;;;;;;;;;;;;;;;27.05;38.08;100396.78;5073435;28;1075;-32
2023/05/23 11:36:17;;;;;;;;;;;;;;;26.97;38.85;100407.69;5063520;28;1097;-33
2023/05/23 11:38:42;;;;;;;;;;;;;;;27.00;38.88;100401.88;5076532;28;1301;-29
2023/05/23 11:41:08;;;;;;;;;;;;;;;26.62;39.49;100411.00;5058128;28;1321;-31
2023/05/23 11:43:33;;;;;;;;;;;;;;;26.68;39.17;100402.16;5052617;28;1126;-29
2023/05/23 11:46:06;;;;;;;;;;;;;;;26.86;39.21;100401.75;5059767;28;1349;-29
2023/05/23 11:48:32;;;;;;;;;;;;;;;27.13;38.47;100398.53;5075284;28;1277;-28
2023/05/23 11:50:57;;;;;;;;;;;;;;;26.85;38.75;100400.06;5075887;28;2000;-31
2023/05/23 11:53:25;;;;;;;;;;;;;;;26.85;38.85;100389.28;5070136;28;1454;-30
2023/05/23 11:55:52;;;;;;;;;;;;;;;26.87;38.22;100391.78;5068635;28;1086;-32
2023/05/23 11:58:18;;;;;;;;;;;;;;;26.89;38.35;100392.44;5062593;28;1190;-29
2023/05/23 12:00:44;;;;;;;;;;;;;;;26.91;37.75;100387.66;5068757;28;1067;-29
2023/05/23 12:03:10;;;;;;;;;;;;;;;26.96;37.73;100389.81;5065496;28;2017;-30
2023/05/23 12:05:36;;;;;;;;;;;;;;;27.14;37.63;100386.72;5058394;28;1265;-33
2023/05/23 12:08:01;;;;;;;;;;;;;;;26.79;38.68;100379.25;5067303;28;1106;-31
2023/05/23 12:10:27;;;;;;;;;;;;;;;26.63;38.69;100378.44;5068890;28;1902;-30
2023/05/23 12:12:52;;;;;;;;;;;;;;;26.70;38.66;100373.13;5071044;28;1598;-30
2023/05/23 12:15:18;;;;;;;;;;;;;;;26.39;39.56;100375.00;5061930;28;1393;-30
2023/05/23 12:17:46;;;;;;;;;;;;;;;26.28;39.01;100367.38;5079930;28;1371;-31
2023/05/23 12:20:11;;;;;;;;;;;;;;;26.43;38.96;100371.94;5078942;28;1340;-29
2023/05/23 12:22:37;;;;;;;;;;;;;;;26.53;38.56;100362.56;5078812;28;1187;-28
2023/05/23 12:25:03;;;;;;;;;;;;;;;26.58;38.63;100380.84;5074444;28;1343;-32
2023/05/23 12:27:32;;;;;;;;;;;;;;;26.32;39.46;100378.63;5053469;28;1824;-28
2023/05/23 12:30:08;;;;;;;;;;;;;;;26.29;40.00;100385.25;5059307;28;1985;-28
2023/05/23 12:32:34;;;;;;;;;;;;;;;26.56;38.96;100382.91;5062208;28;1214;-31
2023/05/23 12:34:59;;;;;;;;;;;;;;;26.46;39.05;100375.09;5065994;28;1065;-29
2023/05/23 12:37:25;;;;;;;;;;;;;;;26.39;38.71;100369.63;5072875;28;1134;-30
2023/05/23 12:39:51;;;;;;;;;;;;;;;26.38;38.75;100370.66;5059549;28;1237;-31
2023/05/23 12:42:16;;;;;;;;;;;;;;;26.35;39.00;100371.03;5074363;28;1391;-30
2023/05/23 12:44:42;;;;;;;;;;;;;;;26.58;38.92;100372.78;5079104;28;1486;-33
2023/05/23 12:47:09;;;;;;;;;;;;;;;26.50;39.48;100372.88;5078715;28;1327;-29
2023/05/23 12:49:34;;;;;;;;;;;;;;;26.58;39.18;100364.69;5078974;28;1142;-29